createdAt,value
2022-08-25T00:01:54.453Z,22.90
2022-08-25T00:04:23.853Z,22.91
2022-08-25T00:06:53.670Z,22.93
2022-08-25T00:09:27.663Z,22.95
2022-08-25T00:11:55.815Z,22.94
2022-08-25T00:14:27.278Z,22.90
2022-08-25T00:16:56.113Z,22.89
2022-08-25T00:19:28.187Z,22.88
2022-08-25T00:21:56.114Z,22.84
2022-08-25T00:24:24.800Z,22.80
2022-08-25T00:26:56.408Z,22.75
2022-08-25T00:29:28.615Z,22.77
2022-08-25T00:31:58.006Z,22.77
2022-08-25T00:34:31.527Z,22.77
2022-08-25T00:36:59.495Z,22.75
2022-08-25T00:39:27.803Z,22.76
2022-08-25T00:41:57.672Z,22.77
2022-08-25T00:44:27.777Z,22.72
2022-08-25T00:46:59.275Z,22.68
2022-08-25T00:49:37.489Z,22.64
2022-08-25T00:52:15.131Z,22.65
2022-08-25T00:54:54.919Z,22.67
2022-08-25T00:57:34.420Z,22.65
2022-08-25T01:00:19.421Z,22.63
2022-08-25T01:02:47.453Z,22.59
2022-08-25T01:05:15.414Z,22.57
2022-08-25T01:07:44.753Z,22.58
2022-08-25T01:10:13.832Z,22.63
2022-08-25T01:12:41.885Z,22.69
2022-08-25T01:15:12.539Z,22.73
2022-08-25T01:17:48.634Z,22.74
2022-08-25T01:20:19.941Z,22.74
2022-08-25T01:22:55.098Z,22.71
2022-08-25T01:25:42.501Z,22.68
2022-08-25T01:28:10.686Z,22.67
2022-08-25T01:30:39.538Z,22.67
2022-08-25T01:33:09.957Z,22.66
2022-08-25T01:35:39.132Z,22.63
2022-08-25T01:38:07.977Z,22.63
2022-08-25T01:40:37.172Z,22.66
2022-08-25T01:43:21.792Z,22.68
2022-08-25T01:45:49.735Z,22.75
2022-08-25T01:48:18.488Z,22.78
2022-08-25T01:50:46.867Z,22.83
2022-08-25T01:53:28.552Z,22.88
2022-08-25T01:56:02.769Z,22.94
2022-08-25T01:58:36.177Z,22.94
2022-08-25T02:01:08.258Z,22.96
2022-08-25T02:03:42.314Z,23.01
2022-08-25T02:06:16.388Z,23.03
2022-08-25T02:08:44.532Z,23.08
2022-08-25T02:11:15.485Z,23.10
2022-08-25T02:13:43.373Z,23.11
2022-08-25T02:16:18.334Z,23.12
2022-08-25T02:18:47.279Z,23.15
2022-08-25T02:21:15.447Z,23.19
2022-08-25T02:23:43.460Z,23.20
2022-08-25T02:26:14.036Z,23.21
2022-08-25T02:28:41.781Z,23.25
2022-08-25T02:31:09.922Z,23.28
2022-08-25T02:33:38.081Z,23.28
2022-08-25T02:36:07.501Z,23.28
2022-08-25T02:38:37.045Z,23.31
2022-08-25T02:41:18.040Z,23.33
2022-08-25T02:43:48.650Z,23.39
2022-08-25T02:46:20.087Z,23.44
2022-08-25T02:48:48.896Z,23.38
2022-08-25T02:51:16.878Z,23.27
2022-08-25T02:53:47.046Z,23.26
2022-08-25T02:56:16.334Z,23.31
2022-08-25T02:58:46.007Z,23.33
2022-08-25T03:01:14.779Z,23.34
2022-08-25T03:03:44.716Z,23.30
2022-08-25T03:06:15.518Z,23.18
2022-08-25T03:08:44.741Z,23.17
2022-08-25T03:11:12.618Z,23.17
2022-08-25T03:13:41.384Z,23.17
2022-08-25T03:16:11.433Z,23.12
2022-08-25T03:18:42.029Z,23.19
2022-08-25T03:21:11.883Z,23.26
2022-08-25T03:23:41.299Z,23.27
2022-08-25T03:26:28.115Z,23.32
2022-08-25T03:28:55.953Z,23.37
2022-08-25T03:31:27.782Z,23.43
2022-08-25T03:33:56.200Z,23.43
2022-08-25T03:36:24.548Z,23.39
2022-08-25T03:38:53.458Z,23.35
2022-08-25T03:41:29.050Z,23.27
2022-08-25T03:43:57.346Z,23.22
2022-08-25T03:46:35.041Z,23.18
2022-08-25T03:49:04.966Z,23.20
2022-08-25T03:51:40.617Z,23.21
2022-08-25T03:54:10.616Z,23.19
2022-08-25T03:56:38.763Z,23.19
2022-08-25T03:59:09.302Z,23.17
2022-08-25T04:01:39.520Z,23.15
2022-08-25T04:04:09.748Z,23.15
2022-08-25T04:06:39.669Z,23.18
2022-08-25T04:09:08.039Z,23.18
2022-08-25T04:11:36.512Z,23.19
2022-08-25T04:14:04.955Z,23.26
2022-08-25T04:16:35.777Z,23.24
2022-08-25T04:19:09.453Z,23.24
2022-08-25T04:21:39.762Z,23.29
2022-08-25T04:24:09.995Z,23.39
2022-08-25T04:26:42.696Z,23.42
2022-08-25T04:29:11.969Z,23.41
2022-08-25T04:31:42.035Z,23.39
2022-08-25T04:34:20.033Z,23.48
2022-08-25T04:37:00.625Z,23.56
2022-08-25T04:39:29.078Z,23.57
2022-08-25T04:41:57.531Z,23.63
2022-08-25T04:44:25.599Z,23.69
2022-08-25T04:46:53.722Z,23.76
2022-08-25T04:49:21.494Z,23.75
2022-08-25T04:51:49.506Z,23.75
2022-08-25T04:54:21.780Z,23.76
2022-08-25T04:56:58.050Z,23.77
2022-08-25T04:59:30.298Z,23.84
2022-08-25T05:02:02.703Z,23.85
2022-08-25T05:04:31.837Z,23.83
2022-08-25T05:07:00.758Z,23.90
2022-08-25T05:09:29.101Z,23.94
2022-08-25T05:12:04.590Z,24.01
2022-08-25T05:14:32.906Z,24.13
2022-08-25T05:17:02.102Z,24.19
2022-08-25T05:19:29.999Z,24.20
2022-08-25T05:21:58.336Z,24.06
2022-08-25T05:24:28.173Z,24.02
2022-08-25T05:26:57.131Z,24.10
2022-08-25T05:29:25.030Z,24.15
2022-08-25T05:31:53.790Z,24.31
2022-08-25T05:34:22.263Z,24.45
2022-08-25T05:36:51.238Z,24.57
2022-08-25T05:39:19.015Z,24.68
2022-08-25T05:41:46.794Z,24.76
2022-08-25T05:44:19.042Z,24.79
2022-08-25T05:46:48.439Z,24.83
2022-08-25T05:49:16.248Z,24.87
2022-08-25T05:51:44.022Z,24.91
2022-08-25T05:54:11.780Z,24.95
2022-08-25T05:56:40.213Z,25.02
2022-08-25T05:59:09.577Z,25.08
2022-08-25T06:01:56.807Z,25.00
2022-08-25T06:04:24.713Z,25.04
2022-08-25T06:06:54.866Z,25.03
2022-08-25T06:09:22.876Z,24.99
2022-08-25T06:11:54.684Z,24.94
2022-08-25T06:14:23.974Z,24.96
2022-08-25T06:16:52.623Z,25.03
2022-08-25T06:19:21.254Z,25.08
2022-08-25T06:21:49.658Z,25.19
2022-08-25T06:24:17.427Z,25.26
2022-08-25T06:26:45.762Z,25.28
2022-08-25T06:29:14.220Z,25.38
2022-08-25T06:31:43.724Z,25.42
2022-08-25T06:34:12.636Z,25.37
2022-08-25T06:36:40.509Z,25.37
2022-08-25T06:39:10.628Z,25.47
2022-08-25T06:41:39.202Z,25.52
2022-08-25T06:44:07.090Z,25.57
2022-08-25T06:46:36.152Z,25.62
2022-08-25T06:49:06.282Z,25.74
2022-08-25T06:51:36.140Z,25.87
2022-08-25T06:54:06.647Z,25.86
2022-08-25T06:56:34.764Z,25.76
2022-08-25T06:59:04.898Z,25.76
2022-08-25T07:01:33.477Z,25.89
2022-08-25T07:04:05.717Z,26.03
2022-08-25T07:06:36.571Z,26.10
2022-08-25T07:09:07.095Z,26.12
2022-08-25T07:11:35.493Z,26.24
2022-08-25T07:14:05.307Z,26.34
2022-08-25T07:16:33.958Z,26.28
2022-08-25T07:19:02.383Z,26.29
2022-08-25T07:21:33.634Z,26.39
2022-08-25T07:24:10.603Z,26.53
2022-08-25T07:26:40.507Z,26.67
2022-08-25T07:29:32.586Z,26.77
2022-08-25T07:32:02.871Z,26.86
2022-08-25T07:34:52.600Z,26.97
2022-08-25T07:37:45.441Z,27.06
2022-08-25T07:40:14.792Z,27.18
2022-08-25T07:42:42.849Z,27.20
2022-08-25T07:45:12.180Z,27.20
2022-08-25T07:47:40.292Z,27.21
2022-08-25T07:50:12.335Z,27.20
2022-08-25T07:52:41.109Z,27.31
2022-08-25T07:55:11.144Z,27.46
2022-08-25T07:57:42.643Z,27.58
2022-08-25T08:00:13.805Z,27.72
2022-08-25T08:02:43.430Z,27.88
2022-08-25T08:05:13.402Z,27.92
2022-08-25T08:07:42.994Z,28.04
2022-08-25T08:10:53.549Z,28.20
2022-08-25T08:13:02.443Z,28.34
2022-08-25T08:15:30.552Z,28.51
2022-08-25T08:17:59.477Z,28.67
2022-08-25T08:20:29.053Z,28.82
2022-08-25T08:22:57.459Z,28.88
2022-08-25T08:25:27.289Z,28.92
2022-08-25T08:27:56.786Z,29.04
2022-08-25T08:30:26.459Z,29.14
2022-08-25T08:33:11.918Z,29.27
2022-08-25T08:35:41.716Z,29.36
2022-08-25T08:38:16.054Z,29.35
2022-08-25T08:41:23.003Z,29.33
2022-08-25T08:44:01.417Z,29.40
2022-08-25T08:46:44.316Z,29.41
2022-08-25T08:49:37.994Z,29.47
2022-08-25T08:52:08.813Z,29.72
2022-08-25T08:54:41.215Z,29.90
2022-08-25T08:57:17.567Z,30.06
2022-08-25T09:00:06.745Z,30.24
2022-08-25T09:02:51.485Z,30.39
2022-08-25T09:05:22.725Z,30.51
2022-08-25T09:07:55.503Z,30.63
2022-08-25T09:10:28.814Z,30.77
2022-08-25T09:13:05.902Z,31.28
2022-08-25T09:16:09.888Z,32.60
2022-08-25T09:19:46.070Z,34.38
2022-08-25T09:22:35.317Z,36.18
2022-08-25T09:25:22.143Z,37.56
2022-08-25T09:28:21.132Z,38.58
2022-08-25T09:30:58.609Z,39.08
2022-08-25T09:33:28.939Z,39.96
2022-08-25T09:35:57.757Z,40.85
2022-08-25T09:38:27.339Z,41.46
2022-08-25T09:41:00.767Z,42.06
2022-08-25T09:43:40.403Z,42.68
2022-08-25T09:46:27.089Z,43.33
2022-08-25T09:48:58.000Z,43.90
2022-08-25T09:51:42.316Z,44.03
2022-08-25T09:54:13.740Z,44.32
2022-08-25T09:57:08.810Z,44.89
2022-08-25T09:59:37.612Z,45.25
2022-08-25T10:02:28.686Z,45.57
2022-08-25T10:04:57.460Z,45.86
2022-08-25T10:07:30.000Z,46.33
2022-08-25T10:10:01.833Z,46.56
2022-08-25T10:12:42.919Z,46.08
2022-08-25T10:15:30.369Z,46.18
2022-08-25T10:18:28.583Z,46.41
2022-08-25T10:21:04.559Z,46.59
2022-08-25T10:23:51.686Z,46.57
2022-08-25T10:26:53.761Z,46.70
2022-08-25T10:29:53.669Z,47.22
2022-08-25T10:32:30.503Z,46.94
2022-08-25T10:35:03.887Z,47.05
2022-08-25T10:37:41.156Z,46.82
2022-08-25T10:40:37.274Z,46.59
2022-08-25T10:43:11.416Z,46.64
2022-08-25T10:45:51.387Z,46.65
2022-08-25T10:48:46.143Z,46.33
2022-08-25T10:51:43.282Z,45.94
2022-08-25T10:54:26.104Z,45.20
2022-08-25T10:57:17.408Z,43.76
2022-08-25T11:00:07.643Z,42.59
2022-08-25T11:02:54.315Z,41.50
2022-08-25T11:05:40.339Z,40.38
2022-08-25T11:08:17.632Z,39.09
2022-08-25T11:10:58.359Z,38.03
2022-08-25T11:13:44.310Z,37.58
2022-08-25T11:16:19.654Z,37.20
2022-08-25T11:19:02.451Z,36.86
2022-08-25T11:22:16.232Z,36.51
2022-08-25T11:24:53.577Z,36.04
2022-08-25T11:27:28.292Z,35.76
2022-08-25T11:30:08.958Z,35.46
2022-08-25T11:32:39.083Z,35.11
2022-08-25T11:35:12.139Z,34.87
2022-08-25T11:38:06.687Z,34.58
2022-08-25T11:40:44.548Z,34.37
2022-08-25T11:43:42.939Z,34.16
2022-08-25T11:46:30.815Z,33.92
2022-08-25T11:49:28.317Z,33.74
2022-08-25T11:52:02.860Z,33.66
2022-08-25T11:54:44.241Z,33.53
2022-08-25T11:57:13.420Z,33.40
2022-08-25T11:59:50.376Z,33.31
2022-08-25T12:02:40.010Z,33.21
2022-08-25T12:05:20.193Z,33.15
2022-08-25T12:08:06.919Z,33.08
2022-08-25T12:10:59.537Z,33.02
2022-08-25T12:13:42.801Z,32.95
2022-08-25T12:16:32.384Z,32.92
2022-08-25T12:19:34.456Z,32.90
2022-08-25T12:22:03.410Z,32.86
2022-08-25T12:24:47.712Z,32.78
2022-08-25T12:27:39.039Z,32.76
2022-08-25T12:30:26.289Z,32.72
2022-08-25T12:33:11.969Z,32.68
2022-08-25T12:35:59.227Z,32.69
2022-08-25T12:38:42.477Z,32.67
2022-08-25T12:41:15.276Z,32.63
2022-08-25T12:43:46.429Z,32.59
2022-08-25T12:46:20.402Z,32.58
2022-08-25T12:49:12.277Z,32.58
2022-08-25T12:51:39.969Z,32.57
2022-08-25T12:54:49.919Z,32.52
2022-08-25T12:57:30.585Z,32.49
2022-08-25T13:00:01.971Z,32.47
2022-08-25T13:03:04.963Z,32.44
2022-08-25T13:06:10.997Z,32.46
2022-08-25T13:09:01.759Z,32.46
2022-08-25T13:11:52.560Z,32.46
2022-08-25T13:14:35.078Z,32.46
2022-08-25T13:17:07.384Z,32.42
2022-08-25T13:19:38.028Z,32.40
2022-08-25T13:22:18.330Z,32.40
2022-08-25T13:24:50.939Z,32.39
2022-08-25T13:27:26.832Z,32.40
2022-08-25T13:29:58.280Z,32.40
2022-08-25T13:32:32.355Z,32.35
2022-08-25T13:35:25.547Z,32.34
2022-08-25T13:38:15.790Z,32.31
2022-08-25T13:40:44.324Z,32.22
2022-08-25T13:43:14.314Z,32.24
2022-08-25T13:45:45.968Z,32.26
2022-08-25T13:48:31.055Z,32.25
2022-08-25T13:51:09.538Z,32.24
2022-08-25T13:53:38.816Z,32.20
2022-08-25T13:56:07.480Z,32.16
2022-08-25T13:58:44.343Z,32.10
2022-08-25T14:01:49.045Z,32.09
2022-08-25T14:04:31.867Z,32.15
2022-08-25T14:07:21.395Z,32.15
2022-08-25T14:09:52.887Z,32.12
2022-08-25T14:12:30.953Z,32.10
2022-08-25T14:15:10.521Z,32.12
2022-08-25T14:17:42.396Z,32.11
2022-08-25T14:20:25.754Z,32.10
2022-08-25T14:22:58.001Z,32.11
2022-08-25T14:25:30.289Z,32.14
2022-08-25T14:28:06.536Z,32.15
2022-08-25T14:30:39.337Z,32.14
2022-08-25T14:33:08.775Z,32.15
2022-08-25T14:35:38.127Z,32.14
2022-08-25T14:38:11.990Z,32.12
2022-08-25T14:40:39.893Z,32.01
2022-08-25T14:43:09.385Z,31.85
2022-08-25T14:45:41.030Z,31.73
2022-08-25T14:48:14.402Z,31.67
2022-08-25T14:50:42.339Z,31.60
2022-08-25T14:53:11.933Z,31.52
2022-08-25T14:55:39.973Z,31.49
2022-08-25T14:58:08.573Z,31.45
2022-08-25T15:00:42.099Z,31.44
2022-08-25T15:03:16.231Z,31.45
2022-08-25T15:05:45.792Z,31.45
2022-08-25T15:08:34.481Z,31.46
2022-08-25T15:11:02.268Z,31.47
2022-08-25T15:13:36.865Z,31.46
2022-08-25T15:16:05.242Z,31.46
2022-08-25T15:18:33.232Z,31.47
2022-08-25T15:21:01.018Z,31.49
2022-08-25T15:23:33.687Z,31.46
2022-08-25T15:26:05.331Z,31.43
2022-08-25T15:28:33.462Z,31.39
2022-08-25T15:31:01.189Z,31.39
2022-08-25T15:33:29.009Z,31.39
2022-08-25T15:35:56.974Z,31.42
2022-08-25T15:38:26.363Z,31.44
2022-08-25T15:40:54.249Z,31.44
2022-08-25T15:43:22.541Z,31.45
2022-08-25T15:45:50.920Z,31.43
2022-08-25T15:48:19.693Z,31.42
2022-08-25T15:50:48.893Z,31.42
2022-08-25T15:53:16.608Z,31.41
2022-08-25T15:55:44.724Z,31.42
2022-08-25T15:58:12.793Z,31.42
2022-08-25T16:00:41.390Z,31.36
2022-08-25T16:03:10.140Z,31.31
2022-08-25T16:05:41.327Z,31.30
2022-08-25T16:08:19.618Z,31.26
2022-08-25T16:10:47.710Z,31.21
2022-08-25T16:13:17.435Z,31.18
2022-08-25T16:15:54.147Z,31.15
2022-08-25T16:18:24.074Z,31.08
2022-08-25T16:20:52.441Z,31.03
2022-08-25T16:23:20.716Z,30.98
2022-08-25T16:25:49.595Z,30.94
2022-08-25T16:28:20.665Z,30.88
2022-08-25T16:30:53.030Z,30.82
2022-08-25T16:33:21.514Z,30.76
2022-08-25T16:35:49.450Z,30.71
2022-08-25T16:38:17.818Z,30.64
2022-08-25T16:40:46.597Z,30.59
2022-08-25T16:43:14.381Z,30.48
2022-08-25T16:45:42.117Z,30.38
2022-08-25T16:48:09.909Z,30.29
2022-08-25T16:50:39.567Z,30.21
2022-08-25T16:53:27.038Z,30.17
2022-08-25T16:56:03.345Z,30.11
2022-08-25T16:58:33.285Z,30.03
2022-08-25T17:01:09.526Z,29.96
2022-08-25T17:03:40.381Z,29.91
2022-08-25T17:06:14.157Z,29.83
2022-08-25T17:08:43.826Z,29.77
2022-08-25T17:11:14.808Z,29.72
2022-08-25T17:13:46.802Z,29.62
2022-08-25T17:16:22.423Z,29.56
2022-08-25T17:18:50.262Z,29.48
2022-08-25T17:21:24.249Z,29.41
2022-08-25T17:23:57.900Z,29.35
2022-08-25T17:26:29.080Z,29.29
2022-08-25T17:28:59.223Z,29.18
2022-08-25T17:31:28.205Z,29.11
2022-08-25T17:33:56.469Z,29.06
2022-08-25T17:36:27.345Z,28.99
2022-08-25T17:38:56.835Z,28.88
2022-08-25T17:41:25.447Z,28.78
2022-08-25T17:43:53.707Z,28.72
2022-08-25T17:46:21.898Z,28.70
2022-08-25T17:48:50.868Z,28.65
2022-08-25T17:51:18.635Z,28.57
2022-08-25T17:53:46.869Z,28.50
2022-08-25T17:56:18.538Z,28.42
2022-08-25T17:58:47.389Z,28.34
2022-08-25T18:01:22.347Z,28.28
2022-08-25T18:03:51.519Z,28.21
2022-08-25T18:06:20.608Z,28.14
2022-08-25T18:08:51.672Z,28.05
2022-08-25T18:11:21.599Z,27.97
2022-08-25T18:13:50.400Z,27.88
2022-08-25T18:16:18.890Z,27.78
2022-08-25T18:18:46.819Z,27.67
2022-08-25T18:21:17.123Z,27.55
2022-08-25T18:23:45.807Z,27.47
2022-08-25T18:26:15.805Z,27.39
2022-08-25T18:28:43.981Z,27.28
2022-08-25T18:31:13.281Z,27.18
2022-08-25T18:33:42.223Z,27.10
2022-08-25T18:36:11.302Z,27.01
2022-08-25T18:38:59.374Z,26.94
2022-08-25T18:41:35.171Z,26.88
2022-08-25T18:44:04.520Z,26.80
2022-08-25T18:46:32.687Z,26.70
2022-08-25T18:49:01.435Z,26.66
2022-08-25T18:51:29.224Z,26.62
2022-08-25T18:54:01.488Z,26.64
2022-08-25T18:56:30.252Z,26.60
2022-08-25T18:58:58.422Z,26.59
2022-08-25T19:01:26.283Z,26.54
2022-08-25T19:03:54.276Z,26.53
2022-08-25T19:06:22.065Z,26.51
2022-08-25T19:08:49.865Z,26.48
2022-08-25T19:11:22.215Z,26.46
2022-08-25T19:13:51.728Z,26.44
2022-08-25T19:16:34.378Z,26.43
2022-08-25T19:19:04.213Z,26.43
2022-08-25T19:21:35.506Z,26.42
2022-08-25T19:24:03.642Z,26.40
2022-08-25T19:26:34.366Z,26.39
2022-08-25T19:29:06.500Z,26.35
2022-08-25T19:31:39.245Z,26.31
2022-08-25T19:34:10.198Z,26.24
2022-08-25T19:36:38.122Z,26.21
2022-08-25T19:39:08.444Z,26.16
2022-08-25T19:41:36.351Z,26.11
2022-08-25T19:44:04.492Z,26.06
2022-08-25T19:46:36.263Z,26.03
2022-08-25T19:49:12.567Z,26.00
2022-08-25T19:51:44.606Z,25.96
2022-08-25T19:54:20.730Z,25.88
2022-08-25T19:56:54.608Z,25.81
2022-08-25T19:59:36.578Z,25.75
2022-08-25T20:02:19.424Z,25.69
2022-08-25T20:04:50.393Z,25.65
2022-08-25T20:07:24.516Z,25.62
2022-08-25T20:09:54.071Z,25.56
2022-08-25T20:12:23.776Z,25.45
2022-08-25T20:14:53.498Z,25.39
2022-08-25T20:17:24.011Z,25.32
2022-08-25T20:19:55.337Z,25.27
2022-08-25T20:22:26.615Z,25.18
2022-08-25T20:24:58.465Z,25.11
2022-08-25T20:27:32.176Z,25.01
2022-08-25T20:30:02.679Z,24.94
2022-08-25T20:32:33.106Z,24.88
2022-08-25T20:35:01.962Z,24.81
2022-08-25T20:37:30.260Z,24.76
2022-08-25T20:39:58.622Z,24.68
2022-08-25T20:42:26.522Z,24.56
2022-08-25T20:44:54.768Z,24.52
2022-08-25T20:47:22.713Z,24.44
2022-08-25T20:49:50.620Z,24.38
2022-08-25T20:52:19.806Z,24.32
2022-08-25T20:54:49.614Z,24.28
2022-08-25T20:57:25.823Z,24.21
2022-08-25T20:59:56.963Z,24.13
2022-08-25T21:02:25.848Z,24.10
2022-08-25T21:04:54.167Z,24.08
2022-08-25T21:07:25.914Z,24.03
2022-08-25T21:09:53.774Z,23.98
2022-08-25T21:12:21.792Z,23.95
2022-08-25T21:14:49.664Z,23.89
2022-08-25T21:17:19.454Z,23.85
2022-08-25T21:22:16.744Z,23.74
2022-08-25T21:24:45.067Z,23.68
2022-08-25T21:27:13.360Z,23.65
2022-08-25T21:30:30.200Z,23.65
2022-08-25T21:32:58.127Z,23.60
2022-08-25T21:35:30.763Z,23.57
2022-08-25T21:37:58.682Z,23.50
2022-08-25T21:40:26.699Z,23.46
2022-08-25T21:42:56.118Z,23.44
2022-08-25T21:45:24.397Z,23.41
2022-08-25T21:47:52.463Z,23.34
2022-08-25T21:50:21.406Z,23.25
2022-08-25T21:52:54.502Z,23.19
2022-08-25T21:55:23.554Z,23.17
2022-08-25T21:57:52.773Z,23.14
2022-08-25T22:00:22.672Z,23.11
2022-08-25T22:02:50.642Z,23.08
2022-08-25T22:05:18.670Z,23.07
2022-08-25T22:07:46.596Z,23.03
2022-08-25T22:10:16.541Z,22.97
2022-08-25T22:12:47.915Z,22.91
2022-08-25T22:15:17.860Z,22.89
2022-08-25T22:17:48.082Z,22.89
2022-08-25T22:20:17.927Z,22.92
2022-08-25T22:22:46.164Z,22.91
2022-08-25T22:25:14.638Z,22.86
2022-08-25T22:27:43.111Z,22.84
2022-08-25T22:30:13.800Z,22.82
2022-08-25T22:32:42.624Z,22.76
2022-08-25T22:35:13.783Z,22.71
2022-08-25T22:37:42.011Z,22.69
2022-08-25T22:40:11.196Z,22.66
2022-08-25T22:42:39.465Z,22.66
2022-08-25T22:45:09.827Z,22.61
2022-08-25T22:47:38.330Z,22.55
2022-08-25T22:50:09.997Z,22.55
2022-08-25T22:52:38.346Z,22.50
2022-08-25T22:55:11.183Z,22.46
2022-08-25T22:57:41.492Z,22.44
2022-08-25T23:00:13.874Z,22.41
2022-08-25T23:02:43.038Z,22.37
2022-08-25T23:05:13.190Z,22.33
2022-08-25T23:07:41.744Z,22.31
2022-08-25T23:10:11.847Z,22.29
2022-08-25T23:12:40.368Z,22.26
2022-08-25T23:15:13.012Z,22.23
2022-08-25T23:17:42.011Z,22.18
2022-08-25T23:20:29.464Z,22.17
2022-08-25T23:22:58.627Z,22.15
2022-08-25T23:25:26.682Z,22.13
2022-08-25T23:27:54.707Z,22.12
2022-08-25T23:30:23.203Z,22.08
2022-08-25T23:32:50.970Z,21.99
2022-08-25T23:35:21.722Z,21.93
2022-08-25T23:37:51.510Z,21.89
2022-08-25T23:40:19.778Z,21.86
2022-08-25T23:42:47.810Z,21.85
2022-08-25T23:45:16.662Z,21.83
2022-08-25T23:47:44.477Z,21.79
2022-08-25T23:50:12.393Z,21.74
2022-08-25T23:52:40.183Z,21.65
2022-08-25T23:55:08.949Z,21.63
2022-08-25T23:57:36.765Z,21.61
